createdAt,value
2024-01-15T00:01:06.980Z,98334.05
2024-01-15T00:03:55.042Z,98328.86
2024-01-15T00:06:23.225Z,98318.27
2024-01-15T00:08:51.296Z,98310.91
2024-01-15T00:11:19.255Z,98308.90
2024-01-15T00:13:47.329Z,98305.39
2024-01-15T00:16:15.197Z,98299.52
2024-01-15T00:18:43.355Z,98296.00
2024-01-15T00:21:11.582Z,98288.30
2024-01-15T00:23:44.638Z,98287.45
2024-01-15T00:26:12.917Z,98279.41
2024-01-15T00:28:40.815Z,98278.55
2024-01-15T00:31:08.865Z,98276.02
2024-01-15T00:33:37.163Z,98270.30
2024-01-15T00:36:05.612Z,98266.29
2024-01-15T00:38:33.583Z,98262.42
2024-01-15T00:41:01.486Z,98263.24
2024-01-15T00:43:29.435Z,98264.08
2024-01-15T00:45:57.502Z,98261.39
2024-01-15T00:48:25.567Z,98257.04
2024-01-15T00:50:55.683Z,98250.98
2024-01-15T00:53:23.847Z,98248.62
2024-01-15T00:55:51.820Z,98246.09
2024-01-15T00:58:20.198Z,98244.91
2024-01-15T01:00:48.329Z,98242.73
2024-01-15T01:03:16.488Z,98243.06
2024-01-15T01:05:45.471Z,98241.05
2024-01-15T01:08:13.401Z,98235.34
2024-01-15T01:10:41.573Z,98234.33
2024-01-15T01:13:10.568Z,98232.68
2024-01-15T01:15:39.975Z,98232.17
2024-01-15T01:18:08.209Z,98230.16
2024-01-15T01:20:36.336Z,98230.65
2024-01-15T01:23:04.690Z,98232.83
2024-01-15T01:25:32.705Z,98227.15
2024-01-15T01:28:00.745Z,98223.14
2024-01-15T01:30:28.798Z,98222.64
2024-01-15T01:32:56.904Z,98217.95
2024-01-15T01:35:24.858Z,98210.76
2024-01-15T01:37:52.829Z,98209.23
2024-01-15T01:40:21.820Z,98204.21
2024-01-15T01:42:50.294Z,98201.86
2024-01-15T01:45:18.425Z,98197.69
2024-01-15T01:47:46.586Z,98190.48
2024-01-15T01:50:15.719Z,98180.60
2024-01-15T01:52:43.805Z,98177.25
2024-01-15T01:55:13.767Z,98177.23
2024-01-15T01:57:42.236Z,98170.02
2024-01-15T02:00:11.231Z,98166.48
2024-01-15T02:02:39.671Z,98165.65
2024-01-15T02:05:08.862Z,98164.33
2024-01-15T02:07:37.413Z,98159.64
2024-01-15T02:10:09.716Z,98160.63
2024-01-15T02:12:37.878Z,98159.46
2024-01-15T02:15:06.360Z,98157.63
2024-01-15T02:17:34.363Z,98155.63
2024-01-15T02:20:02.836Z,98150.92
2024-01-15T02:22:30.815Z,98146.08
2024-01-15T02:24:58.851Z,98144.23
2024-01-15T02:27:27.052Z,98138.54
2024-01-15T02:29:56.423Z,98132.16
2024-01-15T02:32:24.398Z,98128.64
2024-01-15T02:34:52.680Z,98127.30
2024-01-15T02:37:22.073Z,98123.62
2024-01-15T02:39:50.116Z,98120.77
2024-01-15T02:42:18.096Z,98117.92
2024-01-15T02:44:46.077Z,98114.58
2024-01-15T02:47:14.053Z,98101.85
2024-01-15T02:49:42.379Z,98097.48
2024-01-15T02:52:10.805Z,98089.95
2024-01-15T02:54:38.775Z,98087.27
2024-01-15T02:57:06.821Z,98082.24
2024-01-15T02:59:34.813Z,98074.02
2024-01-15T03:02:02.696Z,98073.20
2024-01-15T03:04:30.734Z,98065.48
2024-01-15T03:06:58.849Z,98067.15
2024-01-15T03:09:26.926Z,98060.44
2024-01-15T03:11:54.960Z,98061.95
2024-01-15T03:14:25.901Z,98056.59
2024-01-15T03:16:54.655Z,98052.41
2024-01-15T03:19:22.567Z,98048.05
2024-01-15T03:21:50.574Z,98042.86
2024-01-15T03:24:18.660Z,98039.34
2024-01-15T03:26:46.571Z,98035.50
2024-01-15T03:29:14.458Z,98036.16
2024-01-15T03:31:42.477Z,98038.17
2024-01-15T03:34:10.655Z,98039.34
2024-01-15T03:36:38.826Z,98035.49
2024-01-15T03:39:06.916Z,98031.30
2024-01-15T03:41:34.899Z,98027.11
2024-01-15T03:44:02.861Z,98024.27
2024-01-15T03:46:30.830Z,98017.55
2024-01-15T03:48:58.882Z,98019.58
2024-01-15T03:51:27.071Z,98012.52
2024-01-15T03:53:55.139Z,98009.70
2024-01-15T03:56:23.110Z,98012.22
2024-01-15T03:58:51.072Z,98012.38
2024-01-15T04:01:19.094Z,98004.85
2024-01-15T04:03:47.290Z,97998.65
2024-01-15T04:06:15.273Z,97997.31
2024-01-15T04:08:43.295Z,97991.80
2024-01-15T04:11:11.357Z,97987.27
2024-01-15T04:13:41.485Z,97984.93
2024-01-15T04:16:10.778Z,97979.91
2024-01-15T04:18:38.858Z,97974.05
2024-01-15T04:21:07.776Z,97971.38
2024-01-15T04:23:35.734Z,97966.02
2024-01-15T04:26:03.832Z,97964.86
2024-01-15T04:28:31.708Z,97956.15
2024-01-15T04:30:59.634Z,97951.29
2024-01-15T04:33:27.933Z,97947.27
2024-01-15T04:35:56.028Z,97944.92
2024-01-15T04:38:24.082Z,97939.89
2024-01-15T04:40:53.324Z,97941.91
2024-01-15T04:43:22.332Z,97939.05
2024-01-15T04:45:50.405Z,97932.36
2024-01-15T04:48:18.815Z,97933.19
2024-01-15T04:50:47.742Z,97925.82
2024-01-15T04:53:15.706Z,97922.14
2024-01-15T04:55:43.582Z,97926.66
2024-01-15T04:58:11.534Z,97924.15
2024-01-15T05:00:39.584Z,97925.98
2024-01-15T05:03:07.817Z,97923.64
2024-01-15T05:05:35.902Z,97918.45
2024-01-15T05:08:04.273Z,97920.80
2024-01-15T05:10:32.199Z,97918.29
2024-01-15T05:13:00.116Z,97917.11
2024-01-15T05:15:28.098Z,97908.74
2024-01-15T05:17:58.366Z,97910.59
2024-01-15T05:20:26.480Z,97910.41
2024-01-15T05:22:54.403Z,97910.58
2024-01-15T05:25:22.379Z,97913.27
2024-01-15T05:27:50.453Z,97912.76
2024-01-15T05:30:20.831Z,97910.42
2024-01-15T05:32:48.751Z,97911.42
2024-01-15T05:35:16.815Z,97911.10
2024-01-15T05:37:46.922Z,97909.24
2024-01-15T05:40:15.307Z,97906.23
2024-01-15T05:42:43.452Z,97908.91
2024-01-15T05:45:11.624Z,97907.40
2024-01-15T05:47:39.786Z,97910.09
2024-01-15T05:50:08.349Z,97909.09
2024-01-15T05:52:36.476Z,97907.23
2024-01-15T05:55:05.881Z,97903.89
2024-01-15T05:57:33.915Z,97905.58
2024-01-15T06:00:02.058Z,97899.70
2024-01-15T06:02:30.285Z,97901.55
2024-01-15T06:04:58.733Z,97901.73
2024-01-15T06:07:26.747Z,97894.85
2024-01-15T06:09:54.684Z,97887.48
2024-01-15T06:12:23.376Z,97885.64
2024-01-15T06:14:51.352Z,97886.14
2024-01-15T06:17:19.521Z,97879.95
2024-01-15T06:19:47.464Z,97875.42
2024-01-15T06:22:15.461Z,97873.91
2024-01-15T06:24:44.107Z,97875.42
2024-01-15T06:27:12.032Z,97874.25
2024-01-15T06:29:40.632Z,97867.55
2024-01-15T06:32:08.428Z,97864.21
2024-01-15T06:34:36.215Z,97862.70
2024-01-15T06:37:04.240Z,97860.70
2024-01-15T06:39:32.111Z,97859.17
2024-01-15T06:41:59.933Z,97857.17
2024-01-15T06:44:27.733Z,97856.50
2024-01-15T06:46:58.512Z,97856.34
2024-01-15T06:49:26.486Z,97856.17
2024-01-15T06:51:54.602Z,97853.48
2024-01-15T06:54:22.534Z,97852.48
2024-01-15T06:56:51.434Z,97851.13
2024-01-15T06:59:20.479Z,97852.65
2024-01-15T07:01:48.618Z,97854.16
2024-01-15T07:04:16.502Z,97861.03
2024-01-15T07:06:44.460Z,97860.36
2024-01-15T07:09:12.458Z,97857.52
2024-01-15T07:11:45.017Z,97854.66
2024-01-15T07:14:13.098Z,97855.84
2024-01-15T07:16:42.232Z,97858.33
2024-01-15T07:19:11.033Z,97855.16
2024-01-15T07:21:41.040Z,97860.02
2024-01-15T07:24:08.976Z,97860.17
2024-01-15T07:26:36.752Z,97862.85
2024-01-15T07:29:04.705Z,97858.48
2024-01-15T07:31:34.050Z,97857.15
2024-01-15T07:34:02.129Z,97862.84
2024-01-15T07:36:30.052Z,97870.73
2024-01-15T07:38:57.982Z,97869.89
2024-01-15T07:41:25.981Z,97872.39
2024-01-15T07:43:53.834Z,97875.59
2024-01-15T07:46:21.607Z,97874.75
2024-01-15T07:48:49.837Z,97873.59
2024-01-15T07:51:17.757Z,97883.12
2024-01-15T07:53:45.598Z,97888.47
2024-01-15T07:56:13.763Z,97884.79
2024-01-15T07:58:41.594Z,97893.83
2024-01-15T08:01:10.175Z,97895.84
2024-01-15T08:03:38.418Z,97897.02
2024-01-15T08:06:07.027Z,97900.36
2024-01-15T08:08:35.403Z,97900.87
2024-01-15T08:11:03.234Z,97901.20
2024-01-15T08:13:31.984Z,97902.71
2024-01-15T08:16:00.039Z,97895.36
2024-01-15T08:18:28.137Z,97901.23
2024-01-15T08:20:56.222Z,97900.05
2024-01-15T08:23:24.208Z,97901.55
2024-01-15T08:25:52.137Z,97899.21
2024-01-15T08:28:19.983Z,97901.71
2024-01-15T08:30:48.329Z,97902.39
2024-01-15T08:33:21.934Z,97906.23
2024-01-15T08:35:50.559Z,97907.91
2024-01-15T08:38:18.400Z,97911.08
2024-01-15T08:40:46.355Z,97914.27
2024-01-15T08:43:14.162Z,97912.27
2024-01-15T08:45:42.133Z,97912.11
2024-01-15T08:48:10.018Z,97908.77
2024-01-15T08:50:37.953Z,97901.90
2024-01-15T08:53:05.778Z,97906.75
2024-01-15T08:55:34.095Z,97904.59
2024-01-15T08:58:01.923Z,97902.07
2024-01-15T09:00:29.810Z,97902.76
2024-01-15T09:02:57.903Z,97898.39
2024-01-15T09:05:26.083Z,97893.03
2024-01-15T09:07:54.102Z,97892.84
2024-01-15T09:10:22.208Z,97896.86
2024-01-15T09:12:52.975Z,97895.54
2024-01-15T09:15:21.415Z,97895.02
2024-01-15T09:17:49.299Z,97886.31
2024-01-15T09:20:17.304Z,97881.95
2024-01-15T09:22:45.918Z,97877.25
2024-01-15T09:25:13.782Z,97869.86
2024-01-15T09:27:41.579Z,97881.42
2024-01-15T09:30:10.227Z,97882.93
2024-01-15T09:32:38.392Z,97877.21
2024-01-15T09:35:08.989Z,97878.04
2024-01-15T09:37:44.709Z,97878.21
2024-01-15T09:40:16.913Z,97885.41
2024-01-15T09:42:46.434Z,97883.73
2024-01-15T09:45:15.246Z,97878.53
2024-01-15T09:47:45.924Z,97882.73
2024-01-15T09:50:16.795Z,97883.55
2024-01-15T09:52:46.285Z,97888.91
2024-01-15T09:55:15.048Z,97885.70
2024-01-15T09:57:45.011Z,97883.52
2024-01-15T10:00:14.013Z,97883.54
2024-01-15T10:02:42.399Z,97881.17
2024-01-15T10:05:10.648Z,97872.79
2024-01-15T10:07:40.009Z,97867.91
2024-01-15T10:10:08.805Z,97867.91
2024-01-15T10:12:37.621Z,97868.74
2024-01-15T10:15:05.907Z,97866.39
2024-01-15T10:17:33.748Z,97865.55
2024-01-15T10:20:02.556Z,97869.59
2024-01-15T10:22:30.607Z,97866.73
2024-01-15T10:24:58.549Z,97865.91
2024-01-15T10:27:26.714Z,97861.54
2024-01-15T10:29:55.242Z,97865.24
2024-01-15T10:32:25.385Z,97859.03
2024-01-15T10:34:54.564Z,97857.52
2024-01-15T10:37:23.449Z,97860.69
2024-01-15T10:39:52.800Z,97863.04
2024-01-15T10:42:20.795Z,97861.70
2024-01-15T10:44:49.061Z,97869.23
2024-01-15T10:47:17.353Z,97864.05
2024-01-15T10:49:47.241Z,97873.11
2024-01-15T10:52:16.232Z,97869.08
2024-01-15T10:54:45.248Z,97866.23
2024-01-15T10:57:16.885Z,97864.05
2024-01-15T10:59:44.587Z,97863.86
2024-01-15T11:02:16.058Z,97870.52
2024-01-15T11:04:44.080Z,97869.84
2024-01-15T11:07:13.283Z,97872.19
2024-01-15T11:09:41.378Z,97873.86
2024-01-15T11:12:14.514Z,97867.82
2024-01-15T11:14:49.685Z,97866.27
2024-01-15T11:17:19.885Z,97864.44
2024-01-15T11:19:52.337Z,97862.42
2024-01-15T11:22:33.750Z,97865.30
2024-01-15T11:25:15.060Z,97858.27
2024-01-15T11:27:52.988Z,97862.48
2024-01-15T11:30:25.630Z,97867.36
2024-01-15T11:32:53.713Z,97865.86
2024-01-15T11:35:21.714Z,97859.16
2024-01-15T11:37:53.000Z,97854.83
2024-01-15T11:40:21.950Z,97853.83
2024-01-15T11:42:50.865Z,97844.41
2024-01-15T11:45:21.029Z,97841.55
2024-01-15T11:48:15.024Z,97844.91
2024-01-15T11:50:51.391Z,97850.30
2024-01-15T11:53:48.535Z,97850.65
2024-01-15T11:56:20.271Z,97850.16
2024-01-15T11:58:48.408Z,97846.52
2024-01-15T12:01:16.930Z,97851.22
2024-01-15T12:03:45.594Z,97847.71
2024-01-15T12:06:13.753Z,97844.70
2024-01-15T12:08:41.837Z,97841.02
2024-01-15T12:11:15.075Z,97843.03
2024-01-15T12:13:42.845Z,97839.02
2024-01-15T12:16:11.279Z,97845.40
2024-01-15T12:18:39.340Z,97848.92
2024-01-15T12:21:07.218Z,97846.41
2024-01-15T12:23:34.961Z,97841.73
2024-01-15T12:26:02.919Z,97835.35
2024-01-15T12:28:30.628Z,97845.93
2024-01-15T12:31:00.576Z,97842.23
2024-01-15T12:33:29.204Z,97845.95
2024-01-15T12:35:59.109Z,97840.41
2024-01-15T12:38:29.297Z,97832.02
2024-01-15T12:40:57.213Z,97837.21
2024-01-15T12:43:25.223Z,97842.06
2024-01-15T12:45:52.979Z,97850.96
2024-01-15T12:48:21.195Z,97861.36
2024-01-15T12:50:49.329Z,97850.63
2024-01-15T12:53:18.761Z,97848.46
2024-01-15T12:55:47.276Z,97851.14
2024-01-15T12:58:21.289Z,97845.45
2024-01-15T13:00:50.041Z,97844.61
2024-01-15T13:03:18.290Z,97853.66
2024-01-15T13:05:47.001Z,97854.31
2024-01-15T13:08:15.312Z,97859.52
2024-01-15T13:10:43.679Z,97863.04
2024-01-15T13:13:11.756Z,97860.02
2024-01-15T13:15:39.653Z,97859.02
2024-01-15T13:18:08.214Z,97855.00
2024-01-15T13:20:36.509Z,97858.35
2024-01-15T13:23:05.433Z,97862.04
2024-01-15T13:25:35.173Z,97858.19
2024-01-15T13:28:04.083Z,97855.16
2024-01-15T13:30:33.097Z,97848.80
2024-01-15T13:33:05.590Z,97849.13
2024-01-15T13:35:33.865Z,97847.96
2024-01-15T13:38:01.710Z,97848.63
2024-01-15T13:40:29.581Z,97844.77
2024-01-15T13:42:57.563Z,97844.27
2024-01-15T13:45:25.389Z,97837.08
2024-01-15T13:47:53.293Z,97827.85
2024-01-15T13:50:23.368Z,97830.71
2024-01-15T13:52:52.406Z,97835.55
2024-01-15T13:55:20.997Z,97834.07
2024-01-15T13:57:48.930Z,97838.92
2024-01-15T14:00:19.992Z,97836.58
2024-01-15T14:02:49.181Z,97834.89
2024-01-15T14:05:17.501Z,97837.58
2024-01-15T14:07:45.477Z,97837.92
2024-01-15T14:10:13.263Z,97843.61
2024-01-15T14:12:41.562Z,97843.61
2024-01-15T14:15:10.430Z,97845.79
2024-01-15T14:17:39.056Z,97842.59
2024-01-15T14:20:08.099Z,97841.59
2024-01-15T14:22:35.901Z,97844.44
2024-01-15T14:25:04.658Z,97842.92
2024-01-15T14:27:34.047Z,97839.24
2024-01-15T14:30:02.139Z,97838.91
2024-01-15T14:32:30.631Z,97842.10
2024-01-15T14:34:58.979Z,97849.63
2024-01-15T14:37:27.011Z,97850.64
2024-01-15T14:39:54.989Z,97847.11
2024-01-15T14:42:23.536Z,97848.11
2024-01-15T14:44:51.320Z,97835.05
2024-01-15T14:47:21.618Z,97838.40
2024-01-15T14:49:50.934Z,97835.71
2024-01-15T14:52:18.756Z,97838.07
2024-01-15T14:54:46.782Z,97840.92
2024-01-15T14:57:14.838Z,97835.39
2024-01-15T14:59:42.803Z,97832.38
2024-01-15T15:02:13.189Z,97833.39
2024-01-15T15:04:45.372Z,97835.21
2024-01-15T15:07:14.551Z,97835.73
2024-01-15T15:09:42.474Z,97830.37
2024-01-15T15:12:10.364Z,97833.55
2024-01-15T15:14:48.594Z,97837.73
2024-01-15T15:17:24.249Z,97826.52
2024-01-15T15:19:55.485Z,97833.38
2024-01-15T15:22:23.571Z,97835.39
2024-01-15T15:24:51.429Z,97836.05
2024-01-15T15:27:19.362Z,97842.08
2024-01-15T15:29:49.419Z,97840.24
2024-01-15T15:32:17.453Z,97836.90
2024-01-15T15:34:45.473Z,97840.07
2024-01-15T15:37:13.532Z,97843.92
2024-01-15T15:39:41.304Z,97839.08
2024-01-15T15:42:09.635Z,97832.53
2024-01-15T15:44:39.033Z,97831.70
2024-01-15T15:47:06.843Z,97832.86
2024-01-15T15:49:34.753Z,97827.67
2024-01-15T15:52:04.467Z,97817.80
2024-01-15T15:54:32.377Z,97816.64
2024-01-15T15:57:00.348Z,97816.13
2024-01-15T15:59:31.231Z,97811.94
2024-01-15T16:01:59.393Z,97819.29
2024-01-15T16:04:27.423Z,97825.34
2024-01-15T16:06:55.644Z,97827.69
2024-01-15T16:09:23.905Z,97820.16
2024-01-15T16:11:51.937Z,97822.16
2024-01-15T16:14:19.860Z,97824.00
2024-01-15T16:23:12.678Z,97817.47
2024-01-15T16:23:26.153Z,97818.48
2024-01-15T16:23:41.580Z,97819.48
2024-01-15T16:25:12.723Z,97820.99
2024-01-15T16:27:42.509Z,97814.80
2024-01-15T16:30:20.590Z,97820.81
2024-01-15T16:32:54.214Z,97812.62
2024-01-15T16:35:22.295Z,97817.15
2024-01-15T16:37:51.176Z,97826.02
2024-01-15T16:40:19.132Z,97827.02
2024-01-15T16:42:48.439Z,97826.17
2024-01-15T16:45:16.306Z,97836.23
2024-01-15T16:47:44.161Z,97834.21
2024-01-15T16:50:11.995Z,97831.52
2024-01-15T16:52:39.834Z,97832.20
2024-01-15T16:55:08.027Z,97827.35
2024-01-15T16:57:35.864Z,97824.00
2024-01-15T17:00:03.791Z,97825.33
2024-01-15T17:02:31.720Z,97822.98
2024-01-15T17:04:59.977Z,97825.33
2024-01-15T17:07:28.698Z,97826.83
2024-01-15T17:09:56.580Z,97834.70
2024-01-15T17:12:24.850Z,97833.67
2024-01-15T17:14:52.671Z,97833.53
2024-01-15T17:17:22.747Z,97844.40
2024-01-15T17:19:50.668Z,97840.38
2024-01-15T17:22:18.492Z,97843.39
2024-01-15T17:24:46.310Z,97847.90
2024-01-15T17:27:14.117Z,97853.10
2024-01-15T17:29:41.939Z,97852.24
2024-01-15T17:32:09.824Z,97858.95
2024-01-15T17:34:37.758Z,97857.62
2024-01-15T17:37:05.538Z,97859.45
2024-01-15T17:39:33.355Z,97858.80
2024-01-15T17:42:01.172Z,97860.80
2024-01-15T17:44:28.990Z,97861.98
2024-01-15T17:46:56.898Z,97862.31
2024-01-15T17:49:24.874Z,97859.13
2024-01-15T17:51:53.859Z,97858.95
2024-01-15T17:54:21.765Z,97856.28
2024-01-15T17:56:49.574Z,97859.96
2024-01-15T17:59:17.506Z,97860.63
2024-01-15T18:01:47.798Z,97861.13
2024-01-15T18:04:20.680Z,97870.00
2024-01-15T18:06:49.384Z,97875.17
2024-01-15T18:09:20.565Z,97892.05
2024-01-15T18:11:48.424Z,97920.30
2024-01-15T18:14:16.780Z,97943.36
2024-01-15T18:16:49.470Z,97933.81
2024-01-15T18:19:18.659Z,97918.23
2024-01-15T18:21:47.520Z,97921.73
2024-01-15T18:24:15.377Z,97930.77
2024-01-15T18:26:43.365Z,97922.06
2024-01-15T18:29:11.315Z,97927.42
2024-01-15T18:31:39.257Z,97940.13
2024-01-15T18:34:07.399Z,97942.80
2024-01-15T18:36:35.343Z,97954.17
2024-01-15T18:39:07.266Z,97950.70
2024-01-15T18:41:35.729Z,97960.56
2024-01-15T18:44:03.914Z,97960.05
2024-01-15T18:46:32.021Z,97965.57
2024-01-15T18:48:59.928Z,97976.42
2024-01-15T18:51:28.110Z,97978.40
2024-01-15T18:53:58.317Z,97982.71
2024-01-15T18:56:26.318Z,97988.36
2024-01-15T18:58:54.431Z,97992.35
2024-01-15T19:01:33.476Z,97994.46
2024-01-15T19:04:01.508Z,97994.42
2024-01-15T19:06:29.461Z,97994.22
2024-01-15T19:08:57.362Z,97997.52
2024-01-15T19:11:25.476Z,97994.15
2024-01-15T19:13:54.059Z,97997.64
2024-01-15T19:16:23.735Z,97998.30
2024-01-15T19:18:53.522Z,98001.95
2024-01-15T19:21:21.633Z,98011.13
2024-01-15T19:23:49.878Z,98009.45
2024-01-15T19:26:22.463Z,98012.13
2024-01-15T19:28:50.465Z,98022.66
2024-01-15T19:31:20.600Z,98023.64
2024-01-15T19:33:49.761Z,98034.84
2024-01-15T19:36:25.341Z,98034.34
2024-01-15T19:38:54.317Z,98035.99
2024-01-15T19:41:22.813Z,98042.85
2024-01-15T19:43:50.906Z,98042.52
2024-01-15T19:46:18.676Z,98052.52
2024-01-15T19:48:46.688Z,98048.86
2024-01-15T19:51:16.444Z,98051.34
2024-01-15T19:53:44.922Z,98053.33
2024-01-15T19:56:18.053Z,98058.00
2024-01-15T19:58:46.172Z,98059.17
2024-01-15T20:01:14.233Z,98066.03
2024-01-15T20:03:44.139Z,98070.39
2024-01-15T20:06:14.764Z,98071.90
2024-01-15T20:08:45.010Z,98074.25
2024-01-15T20:11:13.706Z,98081.90
2024-01-15T20:13:43.114Z,98092.80
2024-01-15T20:16:13.613Z,98090.63
2024-01-15T20:18:43.299Z,98099.64
2024-01-15T20:21:11.580Z,98106.31
2024-01-15T20:23:50.417Z,98107.66
2024-01-15T20:26:23.501Z,98108.48
2024-01-15T20:28:52.172Z,98114.77
2024-01-15T20:31:19.947Z,98112.93
2024-01-15T20:33:47.915Z,98118.23
2024-01-15T20:36:18.742Z,98118.54
2024-01-15T20:38:47.229Z,98124.41
2024-01-15T20:41:17.450Z,98122.23
2024-01-15T20:43:45.395Z,98126.54
2024-01-15T20:46:13.452Z,98136.23
2024-01-15T20:48:41.357Z,98133.73
2024-01-15T20:51:11.748Z,98129.04
2024-01-15T20:53:43.316Z,98135.23
2024-01-15T20:56:11.684Z,98136.71
2024-01-15T20:58:39.737Z,98138.36
2024-01-15T21:01:08.636Z,98143.71
2024-01-15T21:03:36.757Z,98143.04
2024-01-15T21:06:05.202Z,98153.39
2024-01-15T21:08:33.357Z,98153.56
2024-01-15T21:11:04.717Z,98151.23
2024-01-15T21:13:34.560Z,98156.75
2024-01-15T21:16:02.990Z,98156.58
2024-01-15T21:18:32.264Z,98154.91
2024-01-15T21:21:00.172Z,98154.77
2024-01-15T21:23:29.497Z,98159.23
2024-01-15T21:25:58.671Z,98160.60
2024-01-15T21:28:26.871Z,98166.08
2024-01-15T21:30:56.198Z,98174.91
2024-01-15T21:33:24.123Z,98180.73
2024-01-15T21:35:52.029Z,98181.54
2024-01-15T21:38:19.894Z,98188.39
2024-01-15T21:40:47.807Z,98199.75
2024-01-15T21:43:16.163Z,98199.91
2024-01-15T21:45:44.005Z,98198.20
2024-01-15T21:48:12.001Z,98202.54
2024-01-15T21:50:39.935Z,98212.05
2024-01-15T21:53:07.758Z,98221.54
2024-01-15T21:55:35.574Z,98226.98
2024-01-15T21:58:03.390Z,98223.35
2024-01-15T22:00:31.250Z,98234.96
2024-01-15T22:02:59.109Z,98241.58
2024-01-15T22:05:27.006Z,98248.53
2024-01-15T22:07:54.805Z,98245.86
2024-01-15T22:10:22.641Z,98257.46
2024-01-15T22:12:50.424Z,98263.52
2024-01-15T22:15:18.294Z,98266.94
2024-01-15T22:17:46.241Z,98275.70
2024-01-15T22:20:14.301Z,98281.70
2024-01-15T22:22:42.445Z,98287.86
2024-01-15T22:25:10.333Z,98305.21
2024-01-15T22:27:38.226Z,98319.57
2024-01-15T22:30:06.800Z,98315.63
2024-01-15T22:32:35.003Z,98328.52
2024-01-15T22:35:03.532Z,98328.71
2024-01-15T22:37:32.524Z,98335.27
2024-01-15T22:40:00.623Z,98338.60
2024-01-15T22:42:29.192Z,98350.30
2024-01-15T22:44:57.136Z,98357.83
2024-01-15T22:47:25.248Z,98352.81
2024-01-15T22:49:53.632Z,98364.66
2024-01-15T22:52:21.439Z,98366.65
2024-01-15T22:54:50.581Z,98369.00
2024-01-15T22:57:22.023Z,98370.16
2024-01-15T22:59:49.973Z,98368.80
2024-01-15T23:02:19.301Z,98372.83
2024-01-15T23:04:47.523Z,98377.95
2024-01-15T23:07:18.595Z,98368.94
2024-01-15T23:09:46.510Z,98378.73
2024-01-15T23:12:14.451Z,98381.03
2024-01-15T23:14:42.318Z,98383.02
2024-01-15T23:17:10.198Z,98384.49
2024-01-15T23:19:38.232Z,98387.34
2024-01-15T23:22:06.391Z,98390.98
2024-01-15T23:24:34.234Z,98393.92
2024-01-15T23:27:02.031Z,98391.27
2024-01-15T23:29:29.859Z,98399.07
2024-01-15T23:31:57.973Z,98397.95
2024-01-15T23:36:53.522Z,98397.86
2024-01-15T23:39:21.303Z,98405.04
2024-01-15T23:41:49.298Z,98400.15
2024-01-15T23:44:17.180Z,98411.15
2024-01-15T23:46:45.002Z,98416.14
2024-01-15T23:49:13.814Z,98421.89
2024-01-15T23:51:41.786Z,98419.04
2024-01-15T23:54:09.571Z,98420.50
2024-01-15T23:56:37.370Z,98418.03
2024-01-15T23:59:05.485Z,98425.71
